Terminal Aerodrome Forecast
Issued by NWS

Home | Current Version | Previous Version | Text Only | Print | Product List | Glossary On
Versions: 1 2 3 4 5 6 7 8 9 10 11 12 13 14 15 16 17 18 19 20 21 22 23 24 25 26 27 28 29 30
000
FTAK31 PAFA 172107 AAA
TAFAOM
TAF AMD
PAOM 172107Z 1721/1818 01003KT P6SM -RA OVC035
     FM180600 01007KT P6SM BKN050
     FM181200 36007KT P6SM FEW050 SCT250=

USA.gov is the U.S. government's official web portal to all federal, state and local government web resources and services.